createdAt,value
2018-02-20T00:00:23.913Z,1020.41
2018-02-20T00:01:23.947Z,1020.43
2018-02-20T00:02:23.929Z,1020.42
2018-02-20T00:03:23.937Z,1020.41
2018-02-20T00:04:23.946Z,1020.39
2018-02-20T00:05:23.940Z,1020.37
2018-02-20T00:06:24.258Z,1020.38
2018-02-20T00:07:23.950Z,1020.42
2018-02-20T00:08:23.950Z,1020.41
2018-02-20T00:09:23.960Z,1020.43
2018-02-20T00:10:23.947Z,1020.45
2018-02-20T00:11:23.964Z,1020.37
2018-02-20T00:12:23.945Z,1020.45
2018-02-20T00:13:23.962Z,1020.47
2018-02-20T00:14:23.985Z,1020.4
2018-02-20T00:15:23.964Z,1020.42
2018-02-20T00:16:23.956Z,1020.37
2018-02-20T00:17:23.955Z,1020.4
2018-02-20T00:18:23.964Z,1020.35
2018-02-20T00:19:23.973Z,1020.35
2018-02-20T00:20:23.963Z,1020.34
2018-02-20T00:21:23.972Z,1020.37
2018-02-20T00:22:23.972Z,1020.37
2018-02-20T00:23:23.975Z,1020.35
2018-02-20T00:24:23.996Z,1020.32
2018-02-20T00:25:23.988Z,1020.34
2018-02-20T00:26:23.988Z,1020.28
2018-02-20T00:27:24.002Z,1020.32
2018-02-20T00:28:23.989Z,1020.28
2018-02-20T00:29:24.000Z,1020.3
2018-02-20T00:30:24.005Z,1020.27
2018-02-20T00:31:24.011Z,1020.3
2018-02-20T00:32:24.014Z,1020.27
2018-02-20T00:33:24.026Z,1020.28
2018-02-20T00:34:24.014Z,1020.31
2018-02-20T00:35:24.013Z,1020.28
2018-02-20T00:36:24.031Z,1020.23
2018-02-20T00:37:24.051Z,1020.28
2018-02-20T00:38:24.181Z,1020.27
2018-02-20T00:39:24.186Z,1020.25
2018-02-20T00:40:24.031Z,1020.24
2018-02-20T00:41:24.202Z,1020.26
2018-02-20T00:42:24.192Z,1020.25
2018-02-20T00:43:24.214Z,1020.24
2018-02-20T00:44:24.199Z,1020.21
2018-02-20T00:45:24.209Z,1020.19
2018-02-20T00:46:24.048Z,1020.2
2018-02-20T00:47:24.080Z,1020.22
2018-02-20T00:48:24.213Z,1020.16
2018-02-20T00:49:24.062Z,1020.2
2018-02-20T00:50:24.062Z,1020.19
2018-02-20T00:51:24.052Z,1020.18
2018-02-20T00:52:24.073Z,1020.18
2018-02-20T00:53:24.221Z,1020.16
2018-02-20T00:54:24.088Z,1020.16
2018-02-20T00:55:24.072Z,1020.15
2018-02-20T00:56:24.064Z,1020.17
2018-02-20T00:57:24.072Z,1020.13
2018-02-20T00:58:24.065Z,1020.13
2018-02-20T00:59:24.069Z,1020.12
2018-02-20T01:00:24.059Z,1020.11
2018-02-20T01:01:24.069Z,1020.1
2018-02-20T01:02:24.061Z,1020.11
2018-02-20T01:03:24.068Z,1020.13
2018-02-20T01:04:24.068Z,1020.1
2018-02-20T01:05:24.072Z,1020.13
2018-02-20T01:06:24.078Z,1020.12
2018-02-20T01:07:24.070Z,1020.12
2018-02-20T01:08:24.093Z,1020.1
2018-02-20T01:09:24.084Z,1020.11
2018-02-20T01:10:24.246Z,1020.11
2018-02-20T01:11:24.092Z,1020.11
2018-02-20T01:12:24.106Z,1020.11
2018-02-20T01:13:24.116Z,1020.11
2018-02-20T01:14:24.105Z,1020.12
2018-02-20T01:15:24.099Z,1020.15
2018-02-20T01:16:24.093Z,1020.12
2018-02-20T01:17:24.105Z,1020.12
2018-02-20T01:18:24.099Z,1020.12
2018-02-20T01:19:24.101Z,1020.1
2018-02-20T01:20:24.110Z,1020.1
2018-02-20T01:21:24.118Z,1020.13
2018-02-20T01:22:24.109Z,1020.13
2018-02-20T01:23:24.134Z,1020.15
2018-02-20T01:24:24.135Z,1020.19
2018-02-20T01:25:24.273Z,1020.16
2018-02-20T01:26:24.116Z,1020.16
2018-02-20T01:27:24.123Z,1020.24
2018-02-20T01:28:24.147Z,1020.21
2018-02-20T01:29:24.120Z,1020.16
2018-02-20T01:30:24.131Z,1020.18
2018-02-20T01:31:24.130Z,1020.14
2018-02-20T01:32:24.128Z,1020.18
2018-02-20T01:33:24.457Z,1020.15
2018-02-20T01:34:24.141Z,1020.2
2018-02-20T01:35:24.150Z,1020.16
2018-02-20T01:36:24.148Z,1020.14
2018-02-20T01:37:24.164Z,1020.07
2018-02-20T01:38:24.187Z,1020.07
2018-02-20T01:39:24.171Z,1020.04
2018-02-20T01:40:24.170Z,1020.01
2018-02-20T01:41:24.194Z,1020.01
2018-02-20T01:42:24.196Z,1020
2018-02-20T01:43:24.235Z,1019.95
2018-02-20T01:44:24.175Z,1019.99
2018-02-20T01:45:24.188Z,1019.98
2018-02-20T01:46:24.183Z,1020
2018-02-20T01:47:24.187Z,1019.98
2018-02-20T01:48:24.216Z,1019.99
2018-02-20T01:49:24.348Z,1020
2018-02-20T01:50:24.348Z,1020
2018-02-20T01:51:24.355Z,1019.98
2018-02-20T01:52:24.361Z,1019.93
2018-02-20T01:53:24.387Z,1019.97
2018-02-20T01:54:24.215Z,1019.94
2018-02-20T01:55:24.365Z,1019.93
2018-02-20T01:56:24.204Z,1019.96
2018-02-20T01:57:24.371Z,1019.9
2018-02-20T01:58:24.393Z,1019.93
2018-02-20T01:59:24.226Z,1019.89
2018-02-20T02:00:24.422Z,1019.88
2018-02-20T02:01:24.387Z,1019.9
2018-02-20T02:02:24.392Z,1019.93
2018-02-20T02:03:24.237Z,1019.93
2018-02-20T02:04:24.243Z,1019.95
2018-02-20T02:05:24.396Z,1019.95
2018-02-20T02:06:24.240Z,1019.94
2018-02-20T02:07:24.244Z,1019.97
2018-02-20T02:08:24.247Z,1019.95
2018-02-20T02:09:24.275Z,1019.89
2018-02-20T02:10:24.238Z,1019.93
2018-02-20T02:11:24.399Z,1019.95
2018-02-20T02:12:24.240Z,1019.94
2018-02-20T02:13:24.418Z,1019.94
2018-02-20T02:14:24.437Z,1019.96
2018-02-20T02:15:24.250Z,1019.96
2018-02-20T02:16:24.242Z,1019.94
2018-02-20T02:17:24.416Z,1019.93
2018-02-20T02:18:24.281Z,1019.95
2018-02-20T02:19:24.259Z,1019.94
2018-02-20T02:20:24.265Z,1019.98
2018-02-20T02:21:24.260Z,1020
2018-02-20T02:22:24.442Z,1020
2018-02-20T02:23:24.282Z,1019.99
2018-02-20T02:24:24.262Z,1019.97
2018-02-20T02:25:24.269Z,1020
2018-02-20T02:26:24.282Z,1019.99
2018-02-20T02:27:24.270Z,1019.99
2018-02-20T02:28:24.268Z,1020.03
2018-02-20T02:29:24.313Z,1020.01
2018-02-20T02:30:24.278Z,1020.03
2018-02-20T02:31:24.277Z,1020
2018-02-20T02:32:24.281Z,1020.03
2018-02-20T02:33:24.295Z,1020.07
2018-02-20T02:34:24.306Z,1020.03
2018-02-20T02:35:24.344Z,1020.08
2018-02-20T02:36:24.305Z,1020.09
2018-02-20T02:37:24.294Z,1020.09
2018-02-20T02:38:24.309Z,1020.14
2018-02-20T02:39:24.305Z,1020.08
2018-02-20T02:40:24.326Z,1020.14
2018-02-20T02:41:24.318Z,1020.13
2018-02-20T02:42:24.321Z,1020.11
2018-02-20T02:43:24.319Z,1020.11
2018-02-20T02:44:24.325Z,1020.1
2018-02-20T02:45:24.362Z,1020.1
2018-02-20T02:46:24.353Z,1020.08
2018-02-20T02:47:24.332Z,1020.11
2018-02-20T02:48:24.520Z,1020.05
2018-02-20T02:49:24.347Z,1020.1
2018-02-20T02:50:24.372Z,1020.13
2018-02-20T02:51:24.357Z,1020.12
2018-02-20T02:52:24.354Z,1020.1
2018-02-20T02:53:24.358Z,1020.1
2018-02-20T02:54:24.364Z,1020.13
2018-02-20T02:55:24.386Z,1020.11
2018-02-20T02:56:24.372Z,1020.09
2018-02-20T02:57:24.379Z,1020.11
2018-02-20T02:58:24.375Z,1020.08
2018-02-20T02:59:24.370Z,1020.06
2018-02-20T03:00:24.564Z,1020.06
2018-02-20T03:01:24.530Z,1020.07
2018-02-20T03:02:24.550Z,1020.08
2018-02-20T03:03:24.552Z,1020.1
2018-02-20T03:04:24.559Z,1020.11
2018-02-20T03:05:24.388Z,1020.08
2018-02-20T03:06:24.688Z,1020.05
2018-02-20T03:07:24.552Z,1020.06
2018-02-20T03:08:24.396Z,1020.08
2018-02-20T03:09:24.567Z,1020.09
2018-02-20T03:10:24.565Z,1020.1
2018-02-20T03:11:24.426Z,1020.1
2018-02-20T03:12:24.570Z,1020.1
2018-02-20T03:13:24.579Z,1020.07
2018-02-20T03:14:24.577Z,1020.08
2018-02-20T03:15:24.576Z,1020.08
2018-02-20T03:16:24.608Z,1020.07
2018-02-20T03:17:24.572Z,1020.09
2018-02-20T03:18:24.422Z,1020.01
2018-02-20T03:19:24.580Z,1020.07
2018-02-20T03:20:24.590Z,1020.06
2018-02-20T03:21:24.579Z,1020.05
2018-02-20T03:22:24.432Z,1020.01
2018-02-20T03:23:24.626Z,1020.03
2018-02-20T03:24:24.589Z,1020.01
2018-02-20T03:25:24.602Z,1020.03
2018-02-20T03:26:24.598Z,1020
2018-02-20T03:27:24.610Z,1020.04
2018-02-20T03:28:24.626Z,1020
2018-02-20T03:29:24.941Z,1020.06
2018-02-20T03:30:24.608Z,1020.01
2018-02-20T03:31:24.622Z,1020.01
2018-02-20T03:32:24.458Z,1019.98
2018-02-20T03:33:24.615Z,1019.96
2018-02-20T03:34:24.657Z,1019.97
2018-02-20T03:35:24.633Z,1019.97
2018-02-20T03:36:24.483Z,1019.94
2018-02-20T03:37:24.497Z,1019.95
2018-02-20T03:38:24.511Z,1019.95
2018-02-20T03:39:24.512Z,1019.95
2018-02-20T03:40:24.505Z,1019.91
2018-02-20T03:41:24.666Z,1019.94
2018-02-20T03:42:24.504Z,1019.92
2018-02-20T03:43:24.523Z,1019.93
2018-02-20T03:44:24.543Z,1019.95
2018-02-20T03:45:24.527Z,1019.93
2018-02-20T03:46:24.508Z,1019.89
2018-02-20T03:47:24.513Z,1019.94
2018-02-20T03:48:24.527Z,1019.96
2018-02-20T03:49:24.535Z,1019.97
2018-02-20T03:50:24.687Z,1019.95
2018-02-20T03:51:24.528Z,1019.96
2018-02-20T03:52:24.530Z,1020
2018-02-20T03:53:24.530Z,1019.92
2018-02-20T03:54:24.709Z,1019.9
2018-02-20T03:55:24.533Z,1019.93
2018-02-20T03:56:24.541Z,1019.91
2018-02-20T03:57:24.543Z,1019.91
2018-02-20T03:58:24.550Z,1019.92
2018-02-20T03:59:24.548Z,1019.88
2018-02-20T04:00:24.562Z,1019.88
2018-02-20T04:01:24.576Z,1019.9
2018-02-20T04:02:24.579Z,1019.89
2018-02-20T04:03:24.575Z,1019.86
2018-02-20T04:04:24.608Z,1019.88
2018-02-20T04:05:24.582Z,1019.87
2018-02-20T04:06:24.591Z,1019.93
2018-02-20T04:07:24.601Z,1019.94
2018-02-20T04:08:24.585Z,1019.9
2018-02-20T04:09:24.584Z,1019.9
2018-02-20T04:10:24.598Z,1019.89
2018-02-20T04:11:24.588Z,1019.85
2018-02-20T04:12:24.760Z,1019.89
2018-02-20T04:13:24.752Z,1019.92
2018-02-20T04:14:24.802Z,1019.9
2018-02-20T04:15:24.765Z,1019.91
2018-02-20T04:16:24.760Z,1019.89
2018-02-20T04:17:24.767Z,1019.85
2018-02-20T04:18:24.775Z,1019.84
2018-02-20T04:19:24.784Z,1019.88
2018-02-20T04:20:24.776Z,1019.9
2018-02-20T04:21:24.781Z,1019.86
2018-02-20T04:22:24.780Z,1019.86
2018-02-20T04:23:24.806Z,1019.89
2018-02-20T04:24:24.811Z,1019.87
2018-02-20T04:25:24.794Z,1019.89
2018-02-20T04:26:24.831Z,1019.84
2018-02-20T04:27:24.794Z,1019.87
2018-02-20T04:28:24.800Z,1019.84
2018-02-20T04:29:24.823Z,1019.85
2018-02-20T04:30:24.651Z,1019.9
2018-02-20T04:31:24.926Z,1019.89
2018-02-20T04:32:24.816Z,1019.89
2018-02-20T04:33:24.828Z,1019.87
2018-02-20T04:34:24.983Z,1019.91
2018-02-20T04:35:24.836Z,1019.88
2018-02-20T04:36:24.827Z,1019.91
2018-02-20T04:37:24.830Z,1019.92
2018-02-20T04:38:24.842Z,1019.92
2018-02-20T04:39:24.831Z,1019.9
2018-02-20T04:40:24.682Z,1019.92
2018-02-20T04:41:24.838Z,1019.95
2018-02-20T04:42:24.710Z,1019.97
2018-02-20T04:43:24.848Z,1019.94
2018-02-20T04:44:24.842Z,1019.94
2018-02-20T04:45:24.867Z,1019.95
2018-02-20T04:46:24.856Z,1019.93
2018-02-20T04:47:24.694Z,1019.96
2018-02-20T04:48:24.699Z,1019.97
2018-02-20T04:49:24.692Z,1019.98
2018-02-20T04:50:24.723Z,1019.96
2018-02-20T04:51:24.713Z,1019.93
2018-02-20T04:52:24.708Z,1019.97
2018-02-20T04:53:24.717Z,1019.96
2018-02-20T04:54:24.844Z,1019.98
2018-02-20T04:55:25.043Z,1019.97
2018-02-20T04:56:24.733Z,1020.01
2018-02-20T04:57:24.727Z,1019.96
2018-02-20T04:58:24.730Z,1019.94
2018-02-20T04:59:24.741Z,1019.99
2018-02-20T05:00:24.756Z,1019.97
2018-02-20T05:01:24.734Z,1019.98
2018-02-20T05:02:24.736Z,1019.95
2018-02-20T05:03:24.743Z,1019.92
2018-02-20T05:04:24.742Z,1019.94
2018-02-20T05:05:24.739Z,1019.94
2018-02-20T05:06:24.767Z,1019.92
2018-02-20T05:07:24.751Z,1019.95
2018-02-20T05:08:24.770Z,1019.95
2018-02-20T05:09:24.775Z,1019.94
2018-02-20T05:10:24.766Z,1019.94
2018-02-20T05:11:24.769Z,1019.89
2018-02-20T05:12:24.882Z,1019.88
2018-02-20T05:13:24.760Z,1019.93
2018-02-20T05:14:24.773Z,1019.96
2018-02-20T05:15:24.779Z,1019.95
2018-02-20T05:16:24.792Z,1019.95
2018-02-20T05:17:24.801Z,1019.91
2018-02-20T05:18:24.830Z,1019.95
2018-02-20T05:19:24.978Z,1019.93
2018-02-20T05:20:24.794Z,1019.91
2018-02-20T05:21:24.817Z,1019.94
2018-02-20T05:22:24.809Z,1019.92
2018-02-20T05:23:24.991Z,1019.91
2018-02-20T05:24:25.018Z,1019.9
2018-02-20T05:25:24.976Z,1019.94
2018-02-20T05:26:24.977Z,1019.92
2018-02-20T05:27:24.986Z,1019.95
2018-02-20T05:28:25.126Z,1019.97
2018-02-20T05:29:24.972Z,1019.94
2018-02-20T05:30:24.970Z,1019.95
2018-02-20T05:31:25.018Z,1019.95
2018-02-20T05:32:24.972Z,1019.95
2018-02-20T05:33:25.005Z,1019.98
2018-02-20T05:34:24.937Z,1019.98
2018-02-20T05:35:24.981Z,1019.94
2018-02-20T05:36:25.009Z,1019.96
2018-02-20T05:37:24.995Z,1019.93
2018-02-20T05:38:25.003Z,1019.94
2018-02-20T05:39:25.009Z,1019.97
2018-02-20T05:40:25.017Z,1019.97
2018-02-20T05:41:25.025Z,1019.97
2018-02-20T05:42:25.034Z,1019.98
2018-02-20T05:43:24.875Z,1020.01
2018-02-20T05:44:25.029Z,1020.01
2018-02-20T05:45:25.067Z,1020.03
2018-02-20T05:46:25.043Z,1020.05
2018-02-20T05:47:25.002Z,1020.05
2018-02-20T05:48:25.039Z,1020.1
2018-02-20T05:49:25.058Z,1020.11
2018-02-20T05:50:25.073Z,1020.11
2018-02-20T05:51:25.054Z,1020.13
2018-02-20T05:52:25.063Z,1020.11
2018-02-20T05:53:25.067Z,1020.13
2018-02-20T05:54:25.066Z,1020.18
2018-02-20T05:55:25.097Z,1020.18
2018-02-20T05:56:25.087Z,1020.2
2018-02-20T05:57:25.135Z,1020.22
2018-02-20T05:58:25.094Z,1020.22
2018-02-20T05:59:24.924Z,1020.22
2018-02-20T06:00:24.962Z,1020.22
2018-02-20T06:01:25.117Z,1020.19
2018-02-20T06:02:24.937Z,1020.21
2018-02-20T06:03:24.943Z,1020.2
2018-02-20T06:04:24.948Z,1020.22
2018-02-20T06:05:24.944Z,1020.17
2018-02-20T06:06:24.957Z,1020.2
2018-02-20T06:07:24.957Z,1020.23
2018-02-20T06:08:25.532Z,1020.25
2018-02-20T06:09:24.963Z,1020.27
2018-02-20T06:10:24.973Z,1020.32
2018-02-20T06:11:24.969Z,1020.27
2018-02-20T06:12:24.987Z,1020.32
2018-02-20T06:13:24.978Z,1020.27
2018-02-20T06:14:24.986Z,1020.32
2018-02-20T06:15:24.996Z,1020.29
2018-02-20T06:16:25.008Z,1020.3
2018-02-20T06:17:24.997Z,1020.28
2018-02-20T06:18:24.990Z,1020.31
2018-02-20T06:19:25.012Z,1020.35
2018-02-20T06:20:24.990Z,1020.27
2018-02-20T06:21:25.023Z,1020.32
2018-02-20T06:22:25.004Z,1020.32
2018-02-20T06:23:24.991Z,1020.3
2018-02-20T06:24:25.000Z,1020.32
2018-02-20T06:25:24.998Z,1020.31
2018-02-20T06:26:24.999Z,1020.31
2018-02-20T06:27:25.012Z,1020.31
2018-02-20T06:28:25.010Z,1020.28
2018-02-20T06:29:25.138Z,1020.34
2018-02-20T06:30:25.021Z,1020.35
2018-02-20T06:31:25.020Z,1020.34
2018-02-20T06:32:25.025Z,1020.36
2018-02-20T06:33:25.052Z,1020.32
2018-02-20T06:34:25.043Z,1020.35
2018-02-20T06:35:25.187Z,1020.32
2018-02-20T06:36:25.193Z,1020.33
2018-02-20T06:37:25.188Z,1020.35
2018-02-20T06:38:25.192Z,1020.37
2018-02-20T06:39:25.223Z,1020.33
2018-02-20T06:40:25.201Z,1020.31
2018-02-20T06:41:25.208Z,1020.33
2018-02-20T06:42:25.206Z,1020.31
2018-02-20T06:43:25.211Z,1020.32
2018-02-20T06:44:25.237Z,1020.31
2018-02-20T06:45:25.211Z,1020.36
2018-02-20T06:46:25.222Z,1020.36
2018-02-20T06:47:25.225Z,1020.38
2018-02-20T06:48:25.065Z,1020.39
2018-02-20T06:49:25.082Z,1020.39
2018-02-20T06:50:25.230Z,1020.43
2018-02-20T06:51:25.268Z,1020.41
2018-02-20T06:52:25.076Z,1020.4
2018-02-20T06:53:25.105Z,1020.39
2018-02-20T06:54:25.103Z,1020.41
2018-02-20T06:55:25.091Z,1020.46
2018-02-20T06:56:25.118Z,1020.48
2018-02-20T06:57:25.097Z,1020.4
2018-02-20T06:58:25.103Z,1020.43
2018-02-20T06:59:25.122Z,1020.47
2018-02-20T07:00:25.099Z,1020.43
2018-02-20T07:01:25.128Z,1020.42
2018-02-20T07:02:25.128Z,1020.45
2018-02-20T07:03:25.122Z,1020.42
2018-02-20T07:04:25.157Z,1020.45
2018-02-20T07:05:25.124Z,1020.5
2018-02-20T07:06:25.152Z,1020.47
2018-02-20T07:07:25.136Z,1020.45
2018-02-20T07:08:25.144Z,1020.45
2018-02-20T07:09:25.180Z,1020.46
2018-02-20T07:10:25.143Z,1020.45
2018-02-20T07:11:25.193Z,1020.44
2018-02-20T07:12:25.303Z,1020.44
2018-02-20T07:13:25.160Z,1020.45
2018-02-20T07:14:25.277Z,1020.4
2018-02-20T07:15:25.155Z,1020.44
2018-02-20T07:16:25.160Z,1020.46
2018-02-20T07:17:25.156Z,1020.41
2018-02-20T07:18:25.165Z,1020.47
2018-02-20T07:19:25.201Z,1020.44
2018-02-20T07:20:25.164Z,1020.47
2018-02-20T07:21:25.161Z,1020.45
2018-02-20T07:22:25.158Z,1020.46
2018-02-20T07:23:25.161Z,1020.5
2018-02-20T07:24:25.339Z,1020.47
2018-02-20T07:25:25.160Z,1020.43
2018-02-20T07:26:25.163Z,1020.42
2018-02-20T07:27:25.172Z,1020.42
2018-02-20T07:28:25.169Z,1020.43
2018-02-20T07:29:25.184Z,1020.45
2018-02-20T07:30:25.299Z,1020.48
2018-02-20T07:31:25.176Z,1020.47
2018-02-20T07:32:25.179Z,1020.46
2018-02-20T07:33:25.192Z,1020.48
2018-02-20T07:34:25.190Z,1020.48
2018-02-20T07:35:25.213Z,1020.47
2018-02-20T07:36:25.188Z,1020.43
2018-02-20T07:37:25.204Z,1020.44
2018-02-20T07:38:25.321Z,1020.44
2018-02-20T07:39:25.365Z,1020.44
2018-02-20T07:40:25.220Z,1020.44
2018-02-20T07:41:25.218Z,1020.47
2018-02-20T07:42:25.206Z,1020.45
2018-02-20T07:43:25.212Z,1020.48
2018-02-20T07:44:25.214Z,1020.46
2018-02-20T07:45:25.210Z,1020.52
2018-02-20T07:46:25.369Z,1020.51
2018-02-20T07:47:25.374Z,1020.54
2018-02-20T07:48:25.380Z,1020.57
2018-02-20T07:49:25.225Z,1020.54
2018-02-20T07:50:25.221Z,1020.49
2018-02-20T07:51:25.352Z,1020.49
2018-02-20T07:52:25.385Z,1020.5
2018-02-20T07:53:25.390Z,1020.53
2018-02-20T07:54:25.398Z,1020.49
2018-02-20T07:55:25.394Z,1020.52
2018-02-20T07:56:25.412Z,1020.54
2018-02-20T07:57:25.421Z,1020.53
2018-02-20T07:58:25.426Z,1020.55
2018-02-20T07:59:25.412Z,1020.53
2018-02-20T08:00:25.428Z,1020.56
2018-02-20T08:01:25.456Z,1020.56
2018-02-20T08:02:25.432Z,1020.54
2018-02-20T08:03:25.605Z,1020.56
2018-02-20T08:04:25.441Z,1020.57
2018-02-20T08:05:25.452Z,1020.59
2018-02-20T08:06:25.460Z,1020.61
2018-02-20T08:07:25.293Z,1020.6
2018-02-20T08:08:25.582Z,1020.57
2018-02-20T08:09:25.292Z,1020.61
2018-02-20T08:10:25.302Z,1020.62
2018-02-20T08:11:25.314Z,1020.57
2018-02-20T08:12:25.313Z,1020.56
2018-02-20T08:13:25.472Z,1020.59
2018-02-20T08:14:25.477Z,1020.5
2018-02-20T08:15:25.479Z,1020.5
2018-02-20T08:16:25.473Z,1020.51
2018-02-20T08:17:25.620Z,1020.47
2018-02-20T08:18:25.483Z,1020.51
2018-02-20T08:19:25.529Z,1020.53
2018-02-20T08:20:25.486Z,1020.52
2018-02-20T08:21:25.527Z,1020.54
2018-02-20T08:22:25.339Z,1020.51
2018-02-20T08:23:25.367Z,1020.48
2018-02-20T08:24:25.345Z,1020.48
2018-02-20T08:25:25.352Z,1020.47
2018-02-20T08:26:25.356Z,1020.49
2018-02-20T08:27:25.354Z,1020.46
2018-02-20T08:28:25.396Z,1020.42
2018-02-20T08:29:25.366Z,1020.43
2018-02-20T08:30:25.373Z,1020.48
2018-02-20T08:31:25.380Z,1020.42
2018-02-20T08:32:25.378Z,1020.41
2018-02-20T08:33:25.414Z,1020.39
2018-02-20T08:34:25.384Z,1020.42
2018-02-20T08:35:25.381Z,1020.4
2018-02-20T08:36:25.391Z,1020.38
2018-02-20T08:37:25.392Z,1020.35
2018-02-20T08:38:25.397Z,1020.37
2018-02-20T08:39:25.402Z,1020.4
2018-02-20T08:40:25.403Z,1020.36
2018-02-20T08:41:25.392Z,1020.34
2018-02-20T08:42:25.401Z,1020.35
2018-02-20T08:43:25.421Z,1020.35
2018-02-20T08:44:25.402Z,1020.33
2018-02-20T08:45:25.396Z,1020.33
2018-02-20T08:46:25.400Z,1020.38
2018-02-20T08:47:25.400Z,1020.36
2018-02-20T08:48:25.429Z,1020.37
2018-02-20T08:49:25.417Z,1020.35
2018-02-20T08:50:25.649Z,1020.35
2018-02-20T08:51:25.426Z,1020.31
2018-02-20T08:52:25.420Z,1020.27
2018-02-20T08:53:25.465Z,1020.29
2018-02-20T08:54:25.418Z,1020.27
2018-02-20T08:55:25.420Z,1020.29
2018-02-20T08:56:25.424Z,1020.31
2018-02-20T08:57:25.425Z,1020.33
2018-02-20T08:58:25.623Z,1020.34
2018-02-20T08:59:25.621Z,1020.32
2018-02-20T09:00:25.662Z,1020.3
2018-02-20T09:01:25.632Z,1020.27
2018-02-20T09:02:25.450Z,1020.27
2018-02-20T09:03:25.673Z,1020.23
2018-02-20T09:04:25.629Z,1020.22
2018-02-20T09:05:25.637Z,1020.2
2018-02-20T09:06:25.665Z,1020.22
2018-02-20T09:07:25.637Z,1020.2
2018-02-20T09:08:25.666Z,1020.22
2018-02-20T09:09:25.651Z,1020.2
2018-02-20T09:10:25.641Z,1020.18
2018-02-20T09:11:25.648Z,1020.2
2018-02-20T09:12:25.665Z,1020.22
2018-02-20T09:13:25.693Z,1020.27
2018-02-20T09:14:25.650Z,1020.25
2018-02-20T09:15:25.683Z,1020.2
2018-02-20T09:16:25.706Z,1020.26
2018-02-20T09:17:25.691Z,1020.23
2018-02-20T09:18:25.704Z,1020.22
2018-02-20T09:19:25.480Z,1020.19
2018-02-20T09:20:25.682Z,1020.18
2018-02-20T09:21:25.689Z,1020.18
2018-02-20T09:22:25.676Z,1020.17
2018-02-20T09:23:25.510Z,1020.1
2018-02-20T09:24:25.493Z,1020.14
2018-02-20T09:25:25.666Z,1020.1
2018-02-20T09:26:25.696Z,1020.12
2018-02-20T09:27:25.690Z,1020.08
2018-02-20T09:28:25.528Z,1020.08
2018-02-20T09:29:25.708Z,1020.07
2018-02-20T09:30:25.715Z,1020.06
2018-02-20T09:31:25.758Z,1020.03
2018-02-20T09:32:25.515Z,1020.06
2018-02-20T09:33:25.738Z,1020
2018-02-20T09:34:25.534Z,1020.03
2018-02-20T09:35:25.537Z,1020.04
2018-02-20T09:36:25.542Z,1019.98
2018-02-20T09:37:25.631Z,1020.04
2018-02-20T09:38:25.863Z,1020.05
2018-02-20T09:39:25.616Z,1019.99
2018-02-20T09:40:25.581Z,1019.97
2018-02-20T09:41:25.591Z,1019.95
2018-02-20T09:42:25.639Z,1019.96
2018-02-20T09:43:25.617Z,1019.95
2018-02-20T09:44:25.581Z,1019.96
2018-02-20T09:45:25.618Z,1019.94
2018-02-20T09:46:25.603Z,1019.92
2018-02-20T09:47:25.594Z,1019.91
2018-02-20T09:48:25.658Z,1019.91
2018-02-20T09:49:25.612Z,1019.9
2018-02-20T09:50:25.613Z,1019.93
2018-02-20T09:51:25.612Z,1019.91
2018-02-20T09:52:25.659Z,1019.93
2018-02-20T09:53:25.658Z,1019.94
2018-02-20T09:54:25.665Z,1019.92
2018-02-20T09:55:25.830Z,1019.92
2018-02-20T09:56:25.655Z,1019.91
2018-02-20T09:57:25.825Z,1019.9
2018-02-20T09:58:25.693Z,1019.87
2018-02-20T09:59:25.655Z,1019.9
2018-02-20T10:00:25.708Z,1019.88
2018-02-20T10:01:25.745Z,1019.85
2018-02-20T10:02:26.843Z,1019.95
2018-02-20T10:03:25.686Z,1019.91
2018-02-20T10:04:25.675Z,1019.9
2018-02-20T10:05:25.699Z,1019.91
2018-02-20T10:06:25.664Z,1019.94
2018-02-20T10:07:25.713Z,1019.93
2018-02-20T10:08:25.693Z,1019.96
2018-02-20T10:09:25.661Z,1019.93
2018-02-20T10:10:25.911Z,1020
2018-02-20T10:11:25.863Z,1019.98
2018-02-20T10:12:26.352Z,1020.01
2018-02-20T10:13:25.915Z,1020.02
2018-02-20T10:14:25.879Z,1020.02
2018-02-20T10:15:25.743Z,1020.06
2018-02-20T10:16:25.700Z,1020.04
2018-02-20T10:17:25.864Z,1020.02
2018-02-20T10:18:25.879Z,1020.03
2018-02-20T10:19:25.700Z,1020.05
2018-02-20T10:20:25.921Z,1020.06
2018-02-20T10:21:25.730Z,1020.07
2018-02-20T10:22:25.882Z,1020.11
2018-02-20T10:23:25.869Z,1020.08
2018-02-20T10:24:25.901Z,1020.06
2018-02-20T10:25:25.704Z,1020.07
2018-02-20T10:26:25.922Z,1020.1
2018-02-20T10:27:25.724Z,1020.08
2018-02-20T10:28:25.717Z,1020.09
2018-02-20T10:29:25.704Z,1020.11
2018-02-20T10:30:25.709Z,1020.06
2018-02-20T10:31:25.721Z,1020.1
2018-02-20T10:32:25.715Z,1020.12
2018-02-20T10:33:25.719Z,1020.07
2018-02-20T10:34:25.732Z,1020.09
2018-02-20T10:35:25.748Z,1020.11
2018-02-20T10:36:25.747Z,1020.12
2018-02-20T10:37:25.755Z,1020.09
2018-02-20T10:38:25.730Z,1020.05
2018-02-20T10:39:25.755Z,1020.08
2018-02-20T10:40:25.753Z,1020.04
2018-02-20T10:41:25.801Z,1020.06
2018-02-20T10:42:25.758Z,1020.02
2018-02-20T10:43:25.847Z,1020.07
2018-02-20T10:44:25.766Z,1020.03
2018-02-20T10:45:25.750Z,1020.07
2018-02-20T10:46:25.789Z,1020.07
2018-02-20T10:47:25.778Z,1020.05
2018-02-20T10:48:25.807Z,1020.05
2018-02-20T10:49:25.776Z,1020.07
2018-02-20T10:50:25.787Z,1020.05
2018-02-20T10:51:26.046Z,1020.09
2018-02-20T10:52:25.775Z,1020.1
2018-02-20T10:53:25.781Z,1020.07
2018-02-20T10:54:25.809Z,1020.06
2018-02-20T10:55:25.910Z,1020.09
2018-02-20T10:56:25.873Z,1020.1
2018-02-20T10:57:25.800Z,1020.11
2018-02-20T10:58:25.790Z,1020.12
2018-02-20T10:59:25.785Z,1020.07
2018-02-20T11:00:25.790Z,1020.07
2018-02-20T11:01:25.773Z,1020.04
2018-02-20T11:02:25.797Z,1020.07
2018-02-20T11:03:25.822Z,1020.03
2018-02-20T11:04:25.796Z,1020.08
2018-02-20T11:05:25.863Z,1020.06
2018-02-20T11:06:25.800Z,1020
2018-02-20T11:07:25.793Z,1020.04
2018-02-20T11:08:25.818Z,1020.03
2018-02-20T11:09:25.796Z,1019.99
2018-02-20T11:10:25.802Z,1019.98
2018-02-20T11:11:25.813Z,1019.97
2018-02-20T11:12:25.815Z,1019.94
2018-02-20T11:13:25.884Z,1019.95
2018-02-20T11:14:25.873Z,1019.93
2018-02-20T11:15:25.958Z,1019.9
2018-02-20T11:16:25.826Z,1019.88
2018-02-20T11:17:25.831Z,1019.88
2018-02-20T11:18:25.879Z,1019.88
2018-02-20T11:19:25.885Z,1019.88
2018-02-20T11:20:25.875Z,1019.89
2018-02-20T11:21:25.835Z,1019.87
2018-02-20T11:22:25.962Z,1019.86
2018-02-20T11:23:25.896Z,1019.91
2018-02-20T11:24:25.956Z,1019.88
2018-02-20T11:25:25.966Z,1019.85
2018-02-20T11:26:25.971Z,1019.87
2018-02-20T11:27:25.970Z,1019.86
2018-02-20T11:28:26.301Z,1019.83
2018-02-20T11:29:25.986Z,1019.87
2018-02-20T11:30:25.981Z,1019.83
2018-02-20T11:31:25.985Z,1019.85
2018-02-20T11:32:25.984Z,1019.85
2018-02-20T11:33:26.032Z,1019.84
2018-02-20T11:34:25.993Z,1019.9
2018-02-20T11:35:25.991Z,1019.87
2018-02-20T11:36:26.002Z,1019.89
2018-02-20T11:37:25.902Z,1019.87
2018-02-20T11:38:26.026Z,1019.91
2018-02-20T11:39:25.997Z,1019.87
2018-02-20T11:40:25.903Z,1019.85
2018-02-20T11:41:26.006Z,1019.83
2018-02-20T11:42:26.003Z,1019.81
2018-02-20T11:43:26.039Z,1019.89
2018-02-20T11:44:26.018Z,1019.83
2018-02-20T11:45:26.024Z,1019.88
2018-02-20T11:46:26.079Z,1019.81
2018-02-20T11:47:26.020Z,1019.88
2018-02-20T11:48:25.913Z,1019.86
2018-02-20T11:49:26.020Z,1019.85
2018-02-20T11:50:26.019Z,1019.83
2018-02-20T11:51:26.018Z,1019.84
2018-02-20T11:52:26.025Z,1019.85
2018-02-20T11:53:26.033Z,1019.83
2018-02-20T11:54:25.956Z,1019.82
2018-02-20T11:55:26.039Z,1019.84
2018-02-20T11:56:26.039Z,1019.83
2018-02-20T11:57:26.054Z,1019.86
2018-02-20T11:58:26.046Z,1019.86
2018-02-20T11:59:26.217Z,1019.84
2018-02-20T12:00:26.042Z,1019.81
2018-02-20T12:01:26.008Z,1019.88
2018-02-20T12:02:25.980Z,1019.84
2018-02-20T12:03:26.060Z,1019.86
2018-02-20T12:04:26.004Z,1019.84
2018-02-20T12:05:26.153Z,1019.83
2018-02-20T12:06:25.967Z,1019.84
2018-02-20T12:07:25.965Z,1019.81
2018-02-20T12:08:25.980Z,1019.86
2018-02-20T12:09:26.034Z,1019.84